sensor_id;sensor_type;location;lat;lon;timestamp;pressure;altitude;pressure_sealevel;temperature;humidity
72855;BME280;60991;51.278;22.550;2023-07-31T00:00:40;98567.72;;;20.60;66.33
72855;BME280;60991;51.278;22.550;2023-07-31T00:02:10;98562.00;;;20.62;66.55
72855;BME280;60991;51.278;22.550;2023-07-31T00:03:41;98563.13;;;20.61;66.56
72855;BME280;60991;51.278;22.550;2023-07-31T00:05:11;98565.97;;;20.64;66.28
72855;BME280;60991;51.278;22.550;2023-07-31T00:06:41;98559.94;;;20.67;66.32
72855;BME280;60991;51.278;22.550;2023-07-31T00:08:11;98568.50;;;20.69;66.11
72855;BME280;60991;51.278;22.550;2023-07-31T00:09:41;98561.50;;;20.68;66.21
72855;BME280;60991;51.278;22.550;2023-07-31T00:11:12;98562.78;;;20.71;66.15
72855;BME280;60991;51.278;22.550;2023-07-31T00:12:44;98567.66;;;20.78;65.94
72855;BME280;60991;51.278;22.550;2023-07-31T00:14:14;98561.13;;;20.79;65.84
72855;BME280;60991;51.278;22.550;2023-07-31T00:15:45;98556.09;;;20.77;65.94
72855;BME280;60991;51.278;22.550;2023-07-31T00:17:17;98568.78;;;20.77;65.68
72855;BME280;60991;51.278;22.550;2023-07-31T00:18:47;98558.50;;;20.70;66.01
72855;BME280;60991;51.278;22.550;2023-07-31T00:20:17;98560.56;;;20.64;66.27
72855;BME280;60991;51.278;22.550;2023-07-31T00:21:47;98565.63;;;20.66;66.15
72855;BME280;60991;51.278;22.550;2023-07-31T00:23:18;98572.94;;;20.65;66.19
72855;BME280;60991;51.278;22.550;2023-07-31T00:24:49;98572.78;;;20.62;66.32
72855;BME280;60991;51.278;22.550;2023-07-31T00:26:19;98569.78;;;20.63;66.25
72855;BME280;60991;51.278;22.550;2023-07-31T00:27:49;98564.38;;;20.63;66.33
72855;BME280;60991;51.278;22.550;2023-07-31T00:29:19;98571.03;;;20.66;66.26
72855;BME280;60991;51.278;22.550;2023-07-31T00:30:50;98571.03;;;20.66;66.28
72855;BME280;60991;51.278;22.550;2023-07-31T00:32:20;98575.81;;;20.60;66.30
72855;BME280;60991;51.278;22.550;2023-07-31T00:33:50;98580.28;;;20.56;66.56
72855;BME280;60991;51.278;22.550;2023-07-31T00:35:20;98577.59;;;20.48;66.92
72855;BME280;60991;51.278;22.550;2023-07-31T00:36:51;98571.25;;;20.44;67.00
72855;BME280;60991;51.278;22.550;2023-07-31T00:38:21;98568.44;;;20.40;66.98
72855;BME280;60991;51.278;22.550;2023-07-31T00:39:51;98573.97;;;20.44;67.14
72855;BME280;60991;51.278;22.550;2023-07-31T00:41:21;98571.13;;;20.40;67.13
72855;BME280;60991;51.278;22.550;2023-07-31T00:42:51;98570.66;;;20.38;67.31
72855;BME280;60991;51.278;22.550;2023-07-31T00:44:22;98575.22;;;20.46;66.95
72855;BME280;60991;51.278;22.550;2023-07-31T00:45:52;98573.47;;;20.50;66.88
72855;BME280;60991;51.278;22.550;2023-07-31T00:47:22;98563.47;;;20.51;66.79
72855;BME280;60991;51.278;22.550;2023-07-31T00:48:52;98573.94;;;20.52;66.68
72855;BME280;60991;51.278;22.550;2023-07-31T00:50:24;98573.16;;;20.52;66.87
72855;BME280;60991;51.278;22.550;2023-07-31T00:51:55;98581.41;;;20.55;66.87
72855;BME280;60991;51.278;22.550;2023-07-31T00:53:25;98573.94;;;20.52;66.88
72855;BME280;60991;51.278;22.550;2023-07-31T00:54:55;98572.69;;;20.50;66.83
72855;BME280;60991;51.278;22.550;2023-07-31T00:56:27;98572.50;;;20.55;66.87
72855;BME280;60991;51.278;22.550;2023-07-31T00:57:58;98570.59;;;20.55;66.92
72855;BME280;60991;51.278;22.550;2023-07-31T00:59:28;98572.31;;;20.60;66.56
72855;BME280;60991;51.278;22.550;2023-07-31T01:00:58;98564.69;;;20.62;66.74
72855;BME280;60991;51.278;22.550;2023-07-31T01:02:28;98570.09;;;20.62;66.45
72855;BME280;60991;51.278;22.550;2023-07-31T01:03:59;98565.38;;;20.59;66.87
72855;BME280;60991;51.278;22.550;2023-07-31T01:05:39;98566.34;;;20.46;67.16
72855;BME280;60991;51.278;22.550;2023-07-31T01:07:24;98571.72;;;20.46;67.20
72855;BME280;60991;51.278;22.550;2023-07-31T01:09:07;98562.03;;;20.53;67.01
72855;BME280;60991;51.278;22.550;2023-07-31T01:10:47;98570.41;;;20.60;66.90
72855;BME280;60991;51.278;22.550;2023-07-31T01:12:20;98573.56;;;20.62;66.81
72855;BME280;60991;51.278;22.550;2023-07-31T01:13:50;98569.78;;;20.63;66.90
72855;BME280;60991;51.278;22.550;2023-07-31T01:15:20;98569.91;;;20.67;66.59
72855;BME280;60991;51.278;22.550;2023-07-31T01:16:51;98562.94;;;20.66;66.48
72855;BME280;60991;51.278;22.550;2023-07-31T01:18:21;98570.72;;;20.67;66.44
72855;BME280;60991;51.278;22.550;2023-07-31T01:19:52;98569.91;;;20.67;66.61
72855;BME280;60991;51.278;22.550;2023-07-31T01:27:09;98575.25;;;20.37;67.68
72855;BME280;60991;51.278;22.550;2023-07-31T01:30:32;98577.28;;;20.32;68.00
72855;BME280;60991;51.278;22.550;2023-07-31T01:32:04;98584.28;;;20.33;68.03
72855;BME280;60991;51.278;22.550;2023-07-31T01:33:36;98576.97;;;20.25;68.27
72855;BME280;60991;51.278;22.550;2023-07-31T01:35:07;98582.69;;;20.23;68.41
72855;BME280;60991;51.278;22.550;2023-07-31T01:36:37;98578.59;;;20.17;68.42
72855;BME280;60991;51.278;22.550;2023-07-31T01:38:07;98574.47;;;20.20;68.55
72855;BME280;60991;51.278;22.550;2023-07-31T01:39:37;98583.19;;;20.17;68.60
72855;BME280;60991;51.278;22.550;2023-07-31T01:41:08;98585.09;;;20.16;68.63
72855;BME280;60991;51.278;22.550;2023-07-31T01:42:38;98587.16;;;20.19;68.75
72855;BME280;60991;51.278;22.550;2023-07-31T01:44:08;98582.56;;;20.20;68.64
72855;BME280;60991;51.278;22.550;2023-07-31T01:45:38;98585.41;;;20.15;68.48
72855;BME280;60991;51.278;22.550;2023-07-31T01:47:08;98587.31;;;20.14;68.72
72855;BME280;60991;51.278;22.550;2023-07-31T01:48:39;98586.84;;;20.12;68.82
72855;BME280;60991;51.278;22.550;2023-07-31T01:50:09;98589.38;;;20.17;68.72
72855;BME280;60991;51.278;22.550;2023-07-31T01:51:39;98589.84;;;20.11;68.68
72855;BME280;60991;51.278;22.550;2023-07-31T01:53:10;98597.31;;;20.14;68.82
72855;BME280;60991;51.278;22.550;2023-07-31T01:54:40;98594.94;;;20.12;68.83
72855;BME280;60991;51.278;22.550;2023-07-31T01:56:10;98595.41;;;20.14;68.60
72855;BME280;60991;51.278;22.550;2023-07-31T01:57:40;98595.72;;;20.21;68.61
72855;BME280;60991;51.278;22.550;2023-07-31T01:59:10;98587.63;;;20.21;68.45
72855;BME280;60991;51.278;22.550;2023-07-31T02:00:41;98598.88;;;20.23;68.58
72855;BME280;60991;51.278;22.550;2023-07-31T02:02:11;98601.44;;;20.20;68.88
72855;BME280;60991;51.278;22.550;2023-07-31T02:03:41;98593.50;;;20.15;68.59
72855;BME280;60991;51.278;22.550;2023-07-31T02:05:11;98600.47;;;20.16;68.70
72855;BME280;60991;51.278;22.550;2023-07-31T02:06:41;98599.69;;;20.15;68.61
72855;BME280;60991;51.278;22.550;2023-07-31T02:08:12;98594.28;;;20.15;68.63
72855;BME280;60991;51.278;22.550;2023-07-31T02:09:42;98598.41;;;20.21;68.47
72855;BME280;60991;51.278;22.550;2023-07-31T02:11:12;98594.41;;;20.27;68.26
72855;BME280;60991;51.278;22.550;2023-07-31T02:12:42;98594.59;;;20.31;68.08
72855;BME280;60991;51.278;22.550;2023-07-31T02:14:13;98593.94;;;20.34;67.79
72855;BME280;60991;51.278;22.550;2023-07-31T02:15:43;98593.81;;;20.39;67.89
72855;BME280;60991;51.278;22.550;2023-07-31T02:17:14;98589.97;;;20.49;67.49
72855;BME280;60991;51.278;22.550;2023-07-31T02:18:45;98590.91;;;20.44;67.54
72855;BME280;60991;51.278;22.550;2023-07-31T02:20:15;98601.09;;;20.38;67.67
72855;BME280;60991;51.278;22.550;2023-07-31T02:21:45;98599.53;;;20.37;67.62
72855;BME280;60991;51.278;22.550;2023-07-31T02:23:15;98600.00;;;20.39;67.59
72855;BME280;60991;51.278;22.550;2023-07-31T02:24:46;98599.66;;;20.32;67.73
72855;BME280;60991;51.278;22.550;2023-07-31T02:26:16;98591.72;;;20.27;67.88
72855;BME280;60991;51.278;22.550;2023-07-31T02:27:46;98594.63;;;20.22;68.04
72855;BME280;60991;51.278;22.550;2023-07-31T02:29:16;98604.59;;;20.22;68.17
72855;BME280;60991;51.278;22.550;2023-07-31T02:30:47;98606.34;;;20.18;68.25
72855;BME280;60991;51.278;22.550;2023-07-31T02:32:17;98607.94;;;20.19;68.12
72855;BME280;60991;51.278;22.550;2023-07-31T02:33:47;98603.81;;;20.13;68.54
72855;BME280;60991;51.278;22.550;2023-07-31T02:35:17;98604.13;;;20.11;68.51
72855;BME280;60991;51.278;22.550;2023-07-31T02:36:47;98612.84;;;20.08;68.67
72855;BME280;60991;51.278;22.550;2023-07-31T02:38:18;98602.69;;;20.14;68.23
72855;BME280;60991;51.278;22.550;2023-07-31T02:39:48;98603.50;;;20.14;68.21
72855;BME280;60991;51.278;22.550;2023-07-31T02:41:18;98605.38;;;20.14;68.43
72855;BME280;60991;51.278;22.550;2023-07-31T02:42:48;98595.41;;;20.14;68.29
72855;BME280;60991;51.278;22.550;2023-07-31T02:44:18;98605.38;;;20.14;68.25
72855;BME280;60991;51.278;22.550;2023-07-31T02:45:52;98598.09;;;20.05;68.27
72855;BME280;60991;51.278;22.550;2023-07-31T02:47:22;98591.00;;;20.01;68.66
72855;BME280;60991;51.278;22.550;2023-07-31T02:48:53;98587.31;;;20.05;68.66
72855;BME280;60991;51.278;22.550;2023-07-31T02:50:23;98589.22;;;20.14;68.36
72855;BME280;60991;51.278;22.550;2023-07-31T02:51:53;98597.75;;;20.24;68.12
72855;BME280;60991;51.278;22.550;2023-07-31T02:53:23;98602.81;;;20.34;67.72
72855;BME280;60991;51.278;22.550;2023-07-31T02:54:53;98599.53;;;20.37;67.55
72855;BME280;60991;51.278;22.550;2023-07-31T02:56:24;98598.41;;;20.38;67.35
72855;BME280;60991;51.278;22.550;2023-07-31T02:57:54;98604.41;;;20.44;67.20
72855;BME280;60991;51.278;22.550;2023-07-31T02:59:24;98601.72;;;20.44;67.42
72855;BME280;60991;51.278;22.550;2023-07-31T03:00:54;98604.72;;;20.43;67.41
72855;BME280;60991;51.278;22.550;2023-07-31T03:02:25;98609.97;;;20.30;67.64
72855;BME280;60991;51.278;22.550;2023-07-31T03:03:55;98609.19;;;20.21;68.07
72855;BME280;60991;51.278;22.550;2023-07-31T03:05:25;98616.31;;;20.09;68.36
72855;BME280;60991;51.278;22.550;2023-07-31T03:06:55;98612.06;;;19.99;68.72
72855;BME280;60991;51.278;22.550;2023-07-31T03:08:25;98615.06;;;19.89;69.02
72855;BME280;60991;51.278;22.550;2023-07-31T03:09:56;98611.28;;;19.81;69.61
72855;BME280;60991;51.278;22.550;2023-07-31T03:11:26;98610.97;;;19.83;69.17
72855;BME280;60991;51.278;22.550;2023-07-31T03:12:56;98612.69;;;19.79;69.49
72855;BME280;60991;51.278;22.550;2023-07-31T03:14:26;98606.97;;;19.71;69.71
72855;BME280;60991;51.278;22.550;2023-07-31T03:15:57;98615.84;;;19.63;70.02
72855;BME280;60991;51.278;22.550;2023-07-31T03:17:27;98618.06;;;19.61;69.97
72855;BME280;60991;51.278;22.550;2023-07-31T03:18:57;98614.41;;;19.57;70.14
72855;BME280;60991;51.278;22.550;2023-07-31T03:20:27;98618.34;;;19.51;70.28
72855;BME280;60991;51.278;22.550;2023-07-31T03:21:58;98613.28;;;19.50;70.31
72855;BME280;60991;51.278;22.550;2023-07-31T03:23:29;98613.94;;;19.55;70.37
72855;BME280;60991;51.278;22.550;2023-07-31T03:24:59;98611.41;;;19.67;69.88
72855;BME280;60991;51.278;22.550;2023-07-31T03:26:31;98610.94;;;19.74;69.78
72855;BME280;60991;51.278;22.550;2023-07-31T03:28:01;98610.63;;;19.76;69.53
72855;BME280;60991;51.278;22.550;2023-07-31T03:29:31;98601.75;;;19.75;69.39
72855;BME280;60991;51.278;22.550;2023-07-31T03:31:02;98607.63;;;19.77;69.39
72855;BME280;60991;51.278;22.550;2023-07-31T03:32:32;98599.06;;;19.75;69.28
72855;BME280;60991;51.278;22.550;2023-07-31T03:34:02;98607.47;;;19.82;69.16
72855;BME280;60991;51.278;22.550;2023-07-31T03:35:32;98606.06;;;19.85;68.88
72855;BME280;60991;51.278;22.550;2023-07-31T03:37:03;98601.28;;;19.90;68.82
72855;BME280;60991;51.278;22.550;2023-07-31T03:38:34;98612.22;;;19.85;69.05
72855;BME280;60991;51.278;22.550;2023-07-31T03:40:04;98614.13;;;19.85;68.96
72855;BME280;60991;51.278;22.550;2023-07-31T03:41:35;98611.75;;;19.75;69.41
72855;BME280;60991;51.278;22.550;2023-07-31T03:43:05;98606.84;;;19.77;69.32
72855;BME280;60991;51.278;22.550;2023-07-31T03:44:35;98609.97;;;19.70;69.49
72855;BME280;60991;51.278;22.550;2023-07-31T03:46:06;98613.66;;;19.65;69.78
72855;BME280;60991;51.278;22.550;2023-07-31T03:47:36;98612.19;;;19.68;69.69
72855;BME280;60991;51.278;22.550;2023-07-31T03:49:06;98608.41;;;19.69;69.68
72855;BME280;60991;51.278;22.550;2023-07-31T03:50:36;98609.06;;;19.66;69.74
72855;BME280;60991;51.278;22.550;2023-07-31T03:52:07;98618.38;;;19.60;69.87
72855;BME280;60991;51.278;22.550;2023-07-31T03:53:37;98619.97;;;19.61;69.85
72855;BME280;60991;51.278;22.550;2023-07-31T03:55:07;98620.28;;;19.68;69.78
72855;BME280;60991;51.278;22.550;2023-07-31T03:56:37;98628.69;;;19.75;69.41
72855;BME280;60991;51.278;22.550;2023-07-31T03:58:08;98619.34;;;19.73;69.70
72855;BME280;60991;51.278;22.550;2023-07-31T03:59:38;98619.16;;;19.69;69.80
72855;BME280;60991;51.278;22.550;2023-07-31T04:01:08;98626.16;;;19.70;69.65
72855;BME280;60991;51.278;22.550;2023-07-31T04:02:38;98625.53;;;19.64;69.79
72855;BME280;60991;51.278;22.550;2023-07-31T04:04:09;98628.69;;;19.66;69.87
72855;BME280;60991;51.278;22.550;2023-07-31T04:05:39;98634.38;;;19.74;69.73
72855;BME280;60991;51.278;22.550;2023-07-31T04:07:09;98630.25;;;19.67;69.91
72855;BME280;60991;51.278;22.550;2023-07-31T04:08:39;98631.53;;;19.70;69.77
72855;BME280;60991;51.278;22.550;2023-07-31T04:10:10;98630.28;;;19.76;69.39
72855;BME280;60991;51.278;22.550;2023-07-31T04:11:40;98636.91;;;19.70;69.73
72855;BME280;60991;51.278;22.550;2023-07-31T04:13:10;98634.09;;;19.66;69.97
72855;BME280;60991;51.278;22.550;2023-07-31T04:14:40;98636.44;;;19.68;69.98
72855;BME280;60991;51.278;22.550;2023-07-31T04:16:10;98642.47;;;19.65;69.95
72855;BME280;60991;51.278;22.550;2023-07-31T04:17:41;98645.00;;;19.70;69.76
72855;BME280;60991;51.278;22.550;2023-07-31T04:19:11;98643.25;;;19.74;69.97
72855;BME280;60991;51.278;22.550;2023-07-31T04:20:41;98646.41;;;19.67;70.32
72855;BME280;60991;51.278;22.550;2023-07-31T04:22:12;98650.25;;;19.66;70.24
72855;BME280;60991;51.278;22.550;2023-07-31T04:23:42;98651.00;;;19.67;70.36
72855;BME280;60991;51.278;22.550;2023-07-31T04:25:12;98649.28;;;19.62;70.46
72855;BME280;60991;51.278;22.550;2023-07-31T04:26:42;98647.22;;;19.59;70.78
72855;BME280;60991;51.278;22.550;2023-07-31T04:28:12;98648.75;;;19.52;70.91
72855;BME280;60991;51.278;22.550;2023-07-31T04:29:43;98650.66;;;19.51;70.96
72855;BME280;60991;51.278;22.550;2023-07-31T04:31:13;98652.69;;;19.46;71.39
72855;BME280;60991;51.278;22.550;2023-07-31T04:32:43;98650.31;;;19.44;71.73
72855;BME280;60991;51.278;22.550;2023-07-31T04:34:13;98655.69;;;19.44;71.43
72855;BME280;60991;51.278;22.550;2023-07-31T04:35:51;98651.91;;;19.45;71.58
72855;BME280;60991;51.278;22.550;2023-07-31T04:37:22;98646.53;;;19.45;71.57
72855;BME280;60991;51.278;22.550;2023-07-31T04:38:52;98645.75;;;19.53;71.28
72855;BME280;60991;51.278;22.550;2023-07-31T04:40:22;98643.88;;;19.54;71.41
72855;BME280;60991;51.278;22.550;2023-07-31T04:41:52;98643.72;;;19.59;71.37
72855;BME280;60991;51.278;22.550;2023-07-31T04:43:22;98636.91;;;19.61;71.06
72855;BME280;60991;51.278;22.550;2023-07-31T04:44:53;98643.09;;;19.62;71.02
72855;BME280;60991;51.278;22.550;2023-07-31T04:46:23;98644.81;;;19.58;71.49
72855;BME280;60991;51.278;22.550;2023-07-31T04:47:53;98648.16;;;19.55;71.58
72855;BME280;60991;51.278;22.550;2023-07-31T04:49:23;98659.56;;;19.60;71.45
72855;BME280;60991;51.278;22.550;2023-07-31T04:50:53;98645.78;;;19.62;71.35
72855;BME280;60991;51.278;22.550;2023-07-31T04:52:24;98658.47;;;19.61;71.37
72855;BME280;60991;51.278;22.550;2023-07-31T04:53:54;98651.66;;;19.73;71.00
72855;BME280;60991;51.278;22.550;2023-07-31T04:55:24;98651.50;;;19.78;70.97
72855;BME280;60991;51.278;22.550;2023-07-31T04:56:54;98651.03;;;19.76;71.16
72855;BME280;60991;51.278;22.550;2023-07-31T04:58:24;98646.09;;;19.69;71.32
72855;BME280;60991;51.278;22.550;2023-07-31T04:59:55;98646.09;;;19.69;71.40
72855;BME280;60991;51.278;22.550;2023-07-31T05:01:25;98643.25;;;19.74;71.42
72855;BME280;60991;51.278;22.550;2023-07-31T05:02:55;98639.47;;;19.66;71.83
72855;BME280;60991;51.278;22.550;2023-07-31T05:04:26;98639.16;;;19.77;71.28
72855;BME280;60991;51.278;22.550;2023-07-31T05:05:56;98640.91;;;19.81;71.34
72855;BME280;60991;51.278;22.550;2023-07-31T05:07:26;98643.91;;;19.80;71.54
72855;BME280;60991;51.278;22.550;2023-07-31T05:08:56;98646.13;;;19.86;71.38
72855;BME280;60991;51.278;22.550;2023-07-31T05:10:26;98649.16;;;19.85;71.54
72855;BME280;60991;51.278;22.550;2023-07-31T05:11:57;98653.09;;;19.87;71.43
72855;BME280;60991;51.278;22.550;2023-07-31T05:13:27;98651.53;;;20.03;71.00
72855;BME280;60991;51.278;22.550;2023-07-31T05:14:57;98660.22;;;20.09;70.83
72855;BME280;60991;51.278;22.550;2023-07-31T05:16:27;98654.06;;;20.09;70.62
72855;BME280;60991;51.278;22.550;2023-07-31T05:17:57;98646.59;;;20.14;70.40
72855;BME280;60991;51.278;22.550;2023-07-31T05:19:28;98651.84;;;20.11;70.46
72855;BME280;60991;51.278;22.550;2023-07-31T05:20:58;98652.94;;;20.10;70.50
72855;BME280;60991;51.278;22.550;2023-07-31T05:22:28;98654.38;;;20.07;70.55
72855;BME280;60991;51.278;22.550;2023-07-31T05:23:58;98656.44;;;20.01;70.84
72855;BME280;60991;51.278;22.550;2023-07-31T05:25:28;98651.34;;;20.09;70.63
72855;BME280;60991;51.278;22.550;2023-07-31T05:26:59;98657.72;;;20.21;70.31
72855;BME280;60991;51.278;22.550;2023-07-31T05:28:29;98657.25;;;20.36;69.99
72855;BME280;60991;51.278;22.550;2023-07-31T05:30:00;98659.28;;;20.48;69.73
72855;BME280;60991;51.278;22.550;2023-07-31T05:31:30;98657.84;;;20.42;70.03
72855;BME280;60991;51.278;22.550;2023-07-31T05:33:00;98657.22;;;20.45;69.06
72855;BME280;60991;51.278;22.550;2023-07-31T05:34:30;98653.56;;;20.50;68.92
72855;BME280;60991;51.278;22.550;2023-07-31T05:36:00;98664.66;;;20.48;68.85
72855;BME280;60991;51.278;22.550;2023-07-31T05:37:31;98659.75;;;20.50;68.43
72855;BME280;60991;51.278;22.550;2023-07-31T05:39:01;98652.94;;;20.53;68.50
72855;BME280;60991;51.278;22.550;2023-07-31T05:40:33;98662.59;;;20.54;68.30
72855;BME280;60991;51.278;22.550;2023-07-31T05:42:03;98661.47;;;20.63;68.18
72855;BME280;60991;51.278;22.550;2023-07-31T05:43:33;98668.94;;;20.58;68.09
72855;BME280;60991;51.278;22.550;2023-07-31T05:45:05;98665.16;;;20.50;67.76
72855;BME280;60991;51.278;22.550;2023-07-31T05:46:36;98661.66;;;20.50;68.04
72855;BME280;60991;51.278;22.550;2023-07-31T05:48:06;98670.53;;;20.42;68.40
72855;BME280;60991;51.278;22.550;2023-07-31T05:49:36;98667.84;;;20.42;68.83
72855;BME280;60991;51.278;22.550;2023-07-31T05:51:06;98668.78;;;20.46;68.56
72855;BME280;60991;51.278;22.550;2023-07-31T05:52:37;98668.00;;;20.45;68.73
72855;BME280;60991;51.278;22.550;2023-07-31T05:54:07;98666.25;;;20.49;68.35
72855;BME280;60991;51.278;22.550;2023-07-31T05:55:37;98670.53;;;20.50;68.29
72855;BME280;60991;51.278;22.550;2023-07-31T05:57:07;98670.69;;;20.45;68.42
72855;BME280;60991;51.278;22.550;2023-07-31T05:58:37;98663.88;;;20.48;68.57
72855;BME280;60991;51.278;22.550;2023-07-31T06:00:08;98672.28;;;20.55;68.36
72855;BME280;60991;51.278;22.550;2023-07-31T06:01:39;98667.03;;;20.58;68.17
72855;BME280;60991;51.278;22.550;2023-07-31T06:03:09;98670.22;;;20.52;68.00
72855;BME280;60991;51.278;22.550;2023-07-31T06:04:39;98674.50;;;20.53;68.06
72855;BME280;60991;51.278;22.550;2023-07-31T06:06:10;98670.53;;;20.50;68.17
72855;BME280;60991;51.278;22.550;2023-07-31T06:07:40;98670.84;;;20.57;68.07
72855;BME280;60991;51.278;22.550;2023-07-31T06:09:10;98674.03;;;20.59;68.12
72855;BME280;60991;51.278;22.550;2023-07-31T06:10:40;98667.81;;;20.67;68.24
72855;BME280;60991;51.278;22.550;2023-07-31T06:12:11;98668.75;;;20.71;68.02
72855;BME280;60991;51.278;22.550;2023-07-31T06:13:41;98665.25;;;20.71;67.69
72855;BME280;60991;51.278;22.550;2023-07-31T06:15:11;98665.75;;;20.73;67.92
72855;BME280;60991;51.278;22.550;2023-07-31T06:16:41;98668.44;;;20.73;68.14
72855;BME280;60991;51.278;22.550;2023-07-31T06:18:12;98670.50;;;20.76;68.02
72855;BME280;60991;51.278;22.550;2023-07-31T06:19:42;98677.47;;;20.77;68.05
72855;BME280;60991;51.278;22.550;2023-07-31T06:21:12;98678.41;;;20.81;67.83
72855;BME280;60991;51.278;22.550;2023-07-31T06:22:43;98665.22;;;20.88;67.45
72855;BME280;60991;51.278;22.550;2023-07-31T06:24:13;98672.09;;;20.77;67.36
72855;BME280;60991;51.278;22.550;2023-07-31T06:25:43;98668.91;;;20.75;67.55
72855;BME280;60991;51.278;22.550;2023-07-31T06:27:13;98678.13;;;20.74;67.43
72855;BME280;60991;51.278;22.550;2023-07-31T06:28:43;98674.16;;;20.63;67.67
72855;BME280;60991;51.278;22.550;2023-07-31T06:30:14;98674.03;;;20.59;68.00
72855;BME280;60991;51.278;22.550;2023-07-31T06:31:44;98676.69;;;20.68;68.33
72855;BME280;60991;51.278;22.550;2023-07-31T06:33:14;98670.50;;;20.76;68.38
72855;BME280;60991;51.278;22.550;2023-07-31T06:34:44;98675.69;;;20.90;67.90
72855;BME280;60991;51.278;22.550;2023-07-31T06:36:14;98675.63;;;20.98;68.06
72855;BME280;60991;51.278;22.550;2023-07-31T06:37:45;98684.03;;;21.05;67.45
72855;BME280;60991;51.278;22.550;2023-07-31T06:39:15;98675.94;;;21.14;67.21
72855;BME280;60991;51.278;22.550;2023-07-31T06:40:45;98672.88;;;21.24;66.98
72855;BME280;60991;51.278;22.550;2023-07-31T06:42:15;98671.72;;;21.34;66.24
72855;BME280;60991;51.278;22.550;2023-07-31T06:43:45;98668.75;;;21.27;66.17
72855;BME280;60991;51.278;22.550;2023-07-31T06:45:16;98668.91;;;21.22;65.97
72855;BME280;60991;51.278;22.550;2023-07-31T06:46:46;98668.91;;;21.22;66.11
72855;BME280;60991;51.278;22.550;2023-07-31T06:48:16;98680.97;;;21.24;66.06
72855;BME280;60991;51.278;22.550;2023-07-31T06:49:46;98678.13;;;21.21;65.68
72855;BME280;60991;51.278;22.550;2023-07-31T06:51:16;98685.13;;;21.22;65.53
72855;BME280;60991;51.278;22.550;2023-07-31T06:52:47;98680.53;;;21.14;65.52
72855;BME280;60991;51.278;22.550;2023-07-31T06:54:17;98675.16;;;21.05;66.42
72855;BME280;60991;51.278;22.550;2023-07-31T06:55:47;98685.63;;;21.06;66.08
72855;BME280;60991;51.278;22.550;2023-07-31T06:57:17;98683.56;;;21.03;66.70
72855;BME280;60991;51.278;22.550;2023-07-31T06:58:47;98685.78;;;21.10;65.87
72855;BME280;60991;51.278;22.550;2023-07-31T07:00:18;98681.97;;;21.11;66.11
72855;BME280;60991;51.278;22.550;2023-07-31T07:01:49;98690.34;;;21.18;66.21
72855;BME280;60991;51.278;22.550;2023-07-31T07:03:20;98681.44;;;21.26;65.68
72855;BME280;60991;51.278;22.550;2023-07-31T07:04:50;98680.00;;;21.29;65.40
72855;BME280;60991;51.278;22.550;2023-07-31T07:06:22;98680.75;;;21.38;65.12
72855;BME280;60991;51.278;22.550;2023-07-31T07:07:52;98685.31;;;21.46;64.60
72855;BME280;60991;51.278;22.550;2023-07-31T07:09:22;98678.00;;;21.47;64.45
72855;BME280;60991;51.278;22.550;2023-07-31T07:10:52;98684.47;;;21.54;64.17
72855;BME280;60991;51.278;22.550;2023-07-31T07:12:22;98687.16;;;21.54;63.66
72855;BME280;60991;51.278;22.550;2023-07-31T07:13:53;98681.13;;;21.57;63.80
72855;BME280;60991;51.278;22.550;2023-07-31T07:15:23;98683.94;;;21.69;63.41
72855;BME280;60991;51.278;22.550;2023-07-31T07:16:53;98685.50;;;21.70;63.29
72855;BME280;60991;51.278;22.550;2023-07-31T07:18:23;98688.66;;;21.72;62.83
72855;BME280;60991;51.278;22.550;2023-07-31T07:19:54;98683.53;;;21.80;62.34
72855;BME280;60991;51.278;22.550;2023-07-31T07:21:24;98685.75;;;21.77;61.96
72855;BME280;60991;51.278;22.550;2023-07-31T07:22:54;98685.75;;;21.77;62.38
72855;BME280;60991;51.278;22.550;2023-07-31T07:24:25;98684.31;;;21.80;62.41
72855;BME280;60991;51.278;22.550;2023-07-31T07:25:55;98678.41;;;21.87;61.78
72855;BME280;60991;51.278;22.550;2023-07-31T07:27:25;98687.56;;;21.94;61.73
72855;BME280;60991;51.278;22.550;2023-07-31T07:28:55;98684.84;;;22.03;61.32
72855;BME280;60991;51.278;22.550;2023-07-31T07:30:25;98684.75;;;22.11;60.88
72855;BME280;60991;51.278;22.550;2023-07-31T07:31:56;98682.69;;;22.08;60.75
72855;BME280;60991;51.278;22.550;2023-07-31T07:33:26;98684.50;;;22.04;60.98
72855;BME280;60991;51.278;22.550;2023-07-31T07:34:56;98684.09;;;22.15;60.56
72855;BME280;60991;51.278;22.550;2023-07-31T07:36:27;98683.56;;;22.21;60.44
72855;BME280;60991;51.278;22.550;2023-07-31T07:37:58;98683.09;;;22.19;60.29
72855;BME280;60991;51.278;22.550;2023-07-31T07:39:28;98682.78;;;22.21;60.15
72855;BME280;60991;51.278;22.550;2023-07-31T07:40:58;98679.41;;;22.24;60.40
72855;BME280;60991;51.278;22.550;2023-07-31T07:42:28;98686.41;;;22.25;59.28
72855;BME280;60991;51.278;22.550;2023-07-31T07:43:59;98687.63;;;22.27;58.35
72855;BME280;60991;51.278;22.550;2023-07-31T07:45:29;98688.03;;;22.38;58.94
72855;BME280;60991;51.278;22.550;2023-07-31T07:46:59;98691.91;;;22.49;58.06
72855;BME280;60991;51.278;22.550;2023-07-31T07:48:29;98694.75;;;22.53;56.45
72855;BME280;60991;51.278;22.550;2023-07-31T07:49:59;98696.66;;;22.52;56.99
72855;BME280;60991;51.278;22.550;2023-07-31T07:51:30;98694.53;;;22.58;57.54
72855;BME280;60991;51.278;22.550;2023-07-31T07:53:00;98691.97;;;22.61;57.90
72855;BME280;60991;51.278;22.550;2023-07-31T07:54:30;98700.53;;;22.63;57.41
72855;BME280;60991;51.278;22.550;2023-07-31T07:56:01;98692.06;;;22.65;56.73
72855;BME280;60991;51.278;22.550;2023-07-31T07:57:31;98697.16;;;22.66;56.41
72855;BME280;60991;51.278;22.550;2023-07-31T07:59:01;98695.69;;;22.69;56.63
72855;BME280;60991;51.278;22.550;2023-07-31T08:00:31;98692.53;;;22.67;57.73